createdAt,value
2018-06-17T00:00:53.061Z,1011.34
2018-06-17T00:01:53.065Z,1011.32
2018-06-17T00:02:53.067Z,1011.34
2018-06-17T00:03:53.056Z,1011.32
2018-06-17T00:04:53.060Z,1011.33
2018-06-17T00:05:53.061Z,1011.29
2018-06-17T00:06:53.074Z,1011.33
2018-06-17T00:07:53.065Z,1011.35
2018-06-17T00:08:53.069Z,1011.35
2018-06-17T00:09:53.071Z,1011.37
2018-06-17T00:10:53.083Z,1011.39
2018-06-17T00:11:53.086Z,1011.39
2018-06-17T00:12:53.292Z,1011.40
2018-06-17T00:13:53.079Z,1011.39
2018-06-17T00:14:53.080Z,1011.43
2018-06-17T00:15:53.083Z,1011.43
2018-06-17T00:16:53.098Z,1011.48
2018-06-17T00:17:53.101Z,1011.48
2018-06-17T00:18:53.090Z,1011.52
2018-06-17T00:19:53.091Z,1011.51
2018-06-17T00:20:53.096Z,1011.48
2018-06-17T00:21:53.096Z,1011.53
2018-06-17T00:22:53.098Z,1011.55
2018-06-17T00:23:53.111Z,1011.53
2018-06-17T00:24:53.105Z,1011.54
2018-06-17T00:25:53.121Z,1011.57
2018-06-17T00:26:53.122Z,1011.57
2018-06-17T00:27:53.125Z,1011.59
2018-06-17T00:28:53.115Z,1011.56
2018-06-17T00:29:53.118Z,1011.56
2018-06-17T00:30:53.318Z,1011.54
2018-06-17T00:31:53.119Z,1011.59
2018-06-17T00:32:53.136Z,1011.53
2018-06-17T00:33:53.135Z,1011.52
2018-06-17T00:34:53.143Z,1011.52
2018-06-17T00:35:53.130Z,1011.48
2018-06-17T00:36:53.142Z,1011.52
2018-06-17T00:37:53.143Z,1011.50
2018-06-17T00:38:53.134Z,1011.50
2018-06-17T00:39:53.165Z,1011.48
2018-06-17T00:40:53.140Z,1011.46
2018-06-17T00:41:53.355Z,1011.47
2018-06-17T00:42:53.146Z,1011.46
2018-06-17T00:43:53.351Z,1011.44
2018-06-17T00:44:53.151Z,1011.43
2018-06-17T00:45:53.166Z,1011.49
2018-06-17T00:46:53.179Z,1011.45
2018-06-17T00:47:53.158Z,1011.45
2018-06-17T00:48:53.163Z,1011.46
2018-06-17T00:49:53.387Z,1011.42
2018-06-17T00:50:53.163Z,1011.45
2018-06-17T00:51:53.168Z,1011.46
2018-06-17T00:52:53.188Z,1011.49
2018-06-17T00:53:53.171Z,1011.49
2018-06-17T00:54:53.374Z,1011.50
2018-06-17T00:55:53.187Z,1011.49
2018-06-17T00:56:53.194Z,1011.49
2018-06-17T00:57:53.192Z,1011.54
2018-06-17T00:58:53.195Z,1011.54
2018-06-17T00:59:53.188Z,1011.53
2018-06-17T01:00:53.202Z,1011.54
2018-06-17T01:01:53.194Z,1011.55
2018-06-17T01:02:53.193Z,1011.53
2018-06-17T01:03:53.194Z,1011.51
2018-06-17T01:04:53.197Z,1011.49
2018-06-17T01:05:53.401Z,1011.47
2018-06-17T01:06:53.402Z,1011.45
2018-06-17T01:07:53.203Z,1011.48
2018-06-17T01:08:53.408Z,1011.51
2018-06-17T01:09:53.207Z,1011.55
2018-06-17T01:10:53.219Z,1011.60
2018-06-17T01:11:53.220Z,1011.57
2018-06-17T01:12:53.414Z,1011.61
2018-06-17T01:13:53.217Z,1011.58
2018-06-17T01:14:53.215Z,1011.64
2018-06-17T01:15:53.219Z,1011.65
2018-06-17T01:16:53.223Z,1011.68
2018-06-17T01:17:53.224Z,1011.69
2018-06-17T01:18:53.263Z,1011.65
2018-06-17T01:19:53.429Z,1011.71
2018-06-17T01:20:53.240Z,1011.70
2018-06-17T01:21:53.231Z,1011.70
2018-06-17T01:22:53.446Z,1011.69
2018-06-17T01:23:53.434Z,1011.70
2018-06-17T01:24:53.240Z,1011.73
2018-06-17T01:25:53.239Z,1011.72
2018-06-17T01:26:53.248Z,1011.74
2018-06-17T01:27:53.455Z,1011.76
2018-06-17T01:28:53.267Z,1011.72
2018-06-17T01:29:53.246Z,1011.71
2018-06-17T01:30:53.256Z,1011.73
2018-06-17T01:31:53.248Z,1011.68
2018-06-17T01:32:53.261Z,1011.70
2018-06-17T01:33:53.264Z,1011.71
2018-06-17T01:34:53.452Z,1011.69
2018-06-17T01:35:53.255Z,1011.68
2018-06-17T01:36:53.267Z,1011.67
2018-06-17T01:37:53.269Z,1011.67
2018-06-17T01:38:53.260Z,1011.64
2018-06-17T01:39:53.290Z,1011.62
2018-06-17T01:40:53.487Z,1011.64
2018-06-17T01:41:53.275Z,1011.66
2018-06-17T01:42:53.265Z,1011.67
2018-06-17T01:43:53.485Z,1011.70
2018-06-17T01:44:53.269Z,1011.65
2018-06-17T01:45:53.272Z,1011.62
2018-06-17T01:46:53.287Z,1011.62
2018-06-17T01:47:53.277Z,1011.63
2018-06-17T01:48:53.476Z,1011.63
2018-06-17T01:49:53.340Z,1011.70
2018-06-17T01:50:53.278Z,1011.75
2018-06-17T01:51:53.482Z,1011.74
2018-06-17T01:52:53.281Z,1011.74
2018-06-17T01:53:53.324Z,1011.68
2018-06-17T01:54:53.500Z,1011.65
2018-06-17T01:55:53.286Z,1011.65
2018-06-17T01:56:53.310Z,1011.66
2018-06-17T01:57:53.291Z,1011.62
2018-06-17T01:58:53.314Z,1011.62
2018-06-17T01:59:53.291Z,1011.61
2018-06-17T02:00:53.310Z,1011.62
2018-06-17T02:01:53.296Z,1011.62
2018-06-17T02:02:53.316Z,1011.58
2018-06-17T02:03:53.514Z,1011.59
2018-06-17T02:04:53.299Z,1011.61
2018-06-17T02:05:53.303Z,1011.59
2018-06-17T02:06:53.303Z,1011.59
2018-06-17T02:07:53.309Z,1011.60
2018-06-17T02:08:53.305Z,1011.61
2018-06-17T02:09:53.519Z,1011.64
2018-06-17T02:10:53.311Z,1011.60
2018-06-17T02:11:53.317Z,1011.57
2018-06-17T02:12:53.310Z,1011.54
2018-06-17T02:13:53.315Z,1011.55
2018-06-17T02:14:53.322Z,1011.54
2018-06-17T02:15:53.315Z,1011.56
2018-06-17T02:16:53.330Z,1011.60
2018-06-17T02:17:53.523Z,1011.65
2018-06-17T02:18:53.333Z,1011.61
2018-06-17T02:19:53.524Z,1011.62
2018-06-17T02:20:53.332Z,1011.62
2018-06-17T02:21:53.354Z,1011.60
2018-06-17T02:22:53.324Z,1011.62
2018-06-17T02:23:53.326Z,1011.63
2018-06-17T02:24:53.342Z,1011.64
2018-06-17T02:25:53.343Z,1011.71
2018-06-17T02:26:53.532Z,1011.66
2018-06-17T02:27:53.333Z,1011.72
2018-06-17T02:28:53.334Z,1011.72
2018-06-17T02:29:53.347Z,1011.66
2018-06-17T02:30:53.538Z,1011.64
2018-06-17T02:31:53.343Z,1011.62
2018-06-17T02:32:53.340Z,1011.65
2018-06-17T02:33:53.357Z,1011.71
2018-06-17T02:34:53.355Z,1011.69
2018-06-17T02:35:53.345Z,1011.70
2018-06-17T02:36:53.549Z,1011.71
2018-06-17T02:37:53.348Z,1011.69
2018-06-17T02:38:53.549Z,1011.72
2018-06-17T02:39:53.551Z,1011.74
2018-06-17T02:40:53.351Z,1011.69
2018-06-17T02:41:53.375Z,1011.76
2018-06-17T02:42:53.355Z,1011.73
2018-06-17T02:43:53.357Z,1011.74
2018-06-17T02:44:53.359Z,1011.74
2018-06-17T02:45:53.567Z,1011.78
2018-06-17T02:46:53.372Z,1011.81
2018-06-17T02:47:53.360Z,1011.77
2018-06-17T02:48:53.364Z,1011.78
2018-06-17T02:49:53.363Z,1011.77
2018-06-17T02:50:53.365Z,1011.77
2018-06-17T02:51:53.370Z,1011.77
2018-06-17T02:52:53.582Z,1011.77
2018-06-17T02:53:53.575Z,1011.80
2018-06-17T02:54:53.588Z,1011.83
2018-06-17T02:55:53.373Z,1011.81
2018-06-17T02:56:53.387Z,1011.80
2018-06-17T02:57:53.381Z,1011.77
2018-06-17T02:58:53.379Z,1011.79
2018-06-17T02:59:53.393Z,1011.79
2018-06-17T03:00:53.388Z,1011.77
2018-06-17T03:01:53.588Z,1011.77
2018-06-17T03:02:53.597Z,1011.76
2018-06-17T03:03:53.446Z,1011.78
2018-06-17T03:04:53.593Z,1011.77
2018-06-17T03:05:53.395Z,1011.79
2018-06-17T03:06:53.397Z,1011.81
2018-06-17T03:07:53.410Z,1011.80
2018-06-17T03:08:53.616Z,1011.78
2018-06-17T03:09:53.424Z,1011.75
2018-06-17T03:10:53.604Z,1011.81
2018-06-17T03:11:53.409Z,1011.81
2018-06-17T03:12:53.408Z,1011.81
2018-06-17T03:13:53.641Z,1011.83
2018-06-17T03:14:53.408Z,1011.83
2018-06-17T03:15:53.444Z,1011.84
2018-06-17T03:16:53.416Z,1011.84
2018-06-17T03:17:53.650Z,1011.89
2018-06-17T03:18:53.636Z,1011.86
2018-06-17T03:19:53.452Z,1011.86
2018-06-17T03:20:53.440Z,1011.89
2018-06-17T03:21:53.642Z,1011.93
2018-06-17T03:22:53.444Z,1011.94
2018-06-17T03:23:53.659Z,1011.94
2018-06-17T03:24:53.432Z,1011.96
2018-06-17T03:25:53.639Z,1011.95
2018-06-17T03:26:53.439Z,1011.99
2018-06-17T03:27:53.650Z,1011.95
2018-06-17T03:28:53.662Z,1011.96
2018-06-17T03:29:53.463Z,1011.92
2018-06-17T03:30:53.473Z,1011.89
2018-06-17T03:31:53.465Z,1011.94
2018-06-17T03:32:53.669Z,1011.92
2018-06-17T03:33:53.655Z,1011.96
2018-06-17T03:34:53.656Z,1011.94
2018-06-17T03:35:53.485Z,1011.97
2018-06-17T03:36:53.474Z,1011.88
2018-06-17T03:37:53.489Z,1011.85
2018-06-17T03:38:53.507Z,1011.81
2018-06-17T03:39:53.480Z,1011.81
2018-06-17T03:40:53.501Z,1011.79
2018-06-17T03:41:53.503Z,1011.80
2018-06-17T03:42:53.677Z,1011.82
2018-06-17T03:43:53.682Z,1011.82
2018-06-17T03:44:53.714Z,1011.84
2018-06-17T03:45:53.499Z,1011.85
2018-06-17T03:46:53.486Z,1011.90
2018-06-17T03:47:53.699Z,1011.88
2018-06-17T03:48:53.494Z,1011.91
2018-06-17T03:49:53.491Z,1011.88
2018-06-17T03:50:53.508Z,1011.90
2018-06-17T03:51:53.501Z,1011.91
2018-06-17T03:52:53.500Z,1011.93
2018-06-17T03:53:53.502Z,1011.97
2018-06-17T03:54:53.517Z,1011.98
2018-06-17T03:55:53.507Z,1012.01
2018-06-17T03:56:53.510Z,1012.02
2018-06-17T03:57:53.512Z,1012.03
2018-06-17T03:58:53.512Z,1012.04
2018-06-17T03:59:53.520Z,1012.03
2018-06-17T04:00:53.541Z,1012.04
2018-06-17T04:01:53.521Z,1012.02
2018-06-17T04:02:53.522Z,1012.03
2018-06-17T04:03:53.523Z,1012.00
2018-06-17T04:04:53.554Z,1011.99
2018-06-17T04:05:53.543Z,1012.00
2018-06-17T04:06:53.531Z,1012.01
2018-06-17T04:07:53.551Z,1011.98
2018-06-17T04:08:53.537Z,1011.97
2018-06-17T04:09:53.553Z,1011.97
2018-06-17T04:10:53.553Z,1011.99
2018-06-17T04:11:53.546Z,1011.91
2018-06-17T04:12:53.560Z,1011.96
2018-06-17T04:13:53.765Z,1011.98
2018-06-17T04:14:53.562Z,1011.97
2018-06-17T04:15:53.586Z,1011.95
2018-06-17T04:16:53.557Z,1011.94
2018-06-17T04:17:53.576Z,1011.96
2018-06-17T04:18:53.571Z,1011.96
2018-06-17T04:19:53.582Z,1011.98
2018-06-17T04:20:53.569Z,1011.99
2018-06-17T04:21:53.571Z,1012.01
2018-06-17T04:22:53.596Z,1011.97
2018-06-17T04:23:53.591Z,1011.97
2018-06-17T04:24:53.579Z,1011.96
2018-06-17T04:25:53.593Z,1012.01
2018-06-17T04:26:53.592Z,1012.00
2018-06-17T04:27:53.595Z,1012.03
2018-06-17T04:28:53.601Z,1012.04
2018-06-17T04:29:53.605Z,1012.02
2018-06-17T04:30:53.594Z,1012.02
2018-06-17T04:31:53.810Z,1012.02
2018-06-17T04:32:53.815Z,1011.97
2018-06-17T04:33:53.613Z,1012.00
2018-06-17T04:34:53.627Z,1011.99
2018-06-17T04:35:53.842Z,1011.99
2018-06-17T04:36:53.619Z,1012.00
2018-06-17T04:37:53.825Z,1011.97
2018-06-17T04:38:53.830Z,1011.98
2018-06-17T04:39:53.631Z,1011.96
2018-06-17T04:40:53.618Z,1011.98
2018-06-17T04:41:53.621Z,1011.98
2018-06-17T04:42:53.638Z,1011.95
2018-06-17T04:43:53.626Z,1012.00
2018-06-17T04:44:53.632Z,1011.97
2018-06-17T04:45:53.632Z,1012.03
2018-06-17T04:46:53.660Z,1011.98
2018-06-17T04:47:53.639Z,1011.99
2018-06-17T04:48:53.642Z,1012.01
2018-06-17T04:49:53.857Z,1011.94
2018-06-17T04:50:53.659Z,1011.93
2018-06-17T04:51:53.664Z,1011.98
2018-06-17T04:52:53.866Z,1011.97
2018-06-17T04:53:53.663Z,1011.97
2018-06-17T04:54:53.687Z,1011.98
2018-06-17T04:55:53.861Z,1011.99
2018-06-17T04:56:53.689Z,1012.02
2018-06-17T04:57:53.680Z,1012.02
2018-06-17T04:58:53.679Z,1011.99
2018-06-17T04:59:53.698Z,1012.04
2018-06-17T05:00:53.673Z,1012.02
2018-06-17T05:01:53.680Z,1012.01
2018-06-17T05:02:53.881Z,1012.00
2018-06-17T05:03:53.680Z,1012.00
2018-06-17T05:04:53.682Z,1012.03
2018-06-17T05:05:53.699Z,1012.01
2018-06-17T05:06:53.688Z,1011.98
2018-06-17T05:07:53.691Z,1011.95
2018-06-17T05:08:53.706Z,1011.99
2018-06-17T05:09:53.696Z,1011.98
2018-06-17T05:10:53.710Z,1011.99
2018-06-17T05:11:53.702Z,1011.99
2018-06-17T05:12:53.703Z,1011.97
2018-06-17T05:13:53.910Z,1011.91
2018-06-17T05:14:53.708Z,1011.96
2018-06-17T05:15:53.715Z,1012.01
2018-06-17T05:16:53.716Z,1012.01
2018-06-17T05:17:53.719Z,1012.03
2018-06-17T05:18:53.734Z,1012.04
2018-06-17T05:19:53.724Z,1012.06
2018-06-17T05:20:53.726Z,1012.04
2018-06-17T05:21:53.945Z,1012.08
2018-06-17T05:22:53.729Z,1012.06
2018-06-17T05:23:53.732Z,1012.04
2018-06-17T05:24:53.747Z,1012.03
2018-06-17T05:25:53.740Z,1012.04
2018-06-17T05:26:53.739Z,1012.03
2018-06-17T05:27:53.742Z,1012.02
2018-06-17T05:28:53.755Z,1012.01
2018-06-17T05:29:53.767Z,1012.02
2018-06-17T05:30:53.753Z,1012.02
2018-06-17T05:31:53.958Z,1012.01
2018-06-17T05:32:53.757Z,1012.04
2018-06-17T05:33:53.853Z,1012.00
2018-06-17T05:34:53.763Z,1012.02
2018-06-17T05:35:53.971Z,1012.00
2018-06-17T05:36:53.972Z,1012.04
2018-06-17T05:37:53.786Z,1012.01
2018-06-17T05:38:53.805Z,1012.02
2018-06-17T05:39:53.778Z,1012.01
2018-06-17T05:40:53.779Z,1012.03
2018-06-17T05:41:53.784Z,1012.02
2018-06-17T05:42:53.790Z,1012.00
2018-06-17T05:43:53.790Z,1012.06
2018-06-17T05:44:53.791Z,1012.07
2018-06-17T05:45:53.807Z,1012.08
2018-06-17T05:46:53.797Z,1012.09
2018-06-17T05:47:53.801Z,1012.09
2018-06-17T05:48:53.802Z,1012.11
2018-06-17T05:49:53.806Z,1012.15
2018-06-17T05:50:53.807Z,1012.13
2018-06-17T05:51:53.822Z,1012.17
2018-06-17T05:52:53.812Z,1012.16
2018-06-17T05:53:53.837Z,1012.13
2018-06-17T05:54:53.824Z,1012.13
2018-06-17T05:55:53.824Z,1012.13
2018-06-17T05:56:53.825Z,1012.14
2018-06-17T05:57:53.838Z,1012.14
2018-06-17T05:58:53.832Z,1012.15
2018-06-17T05:59:53.840Z,1012.18
2018-06-17T06:00:53.835Z,1012.18
2018-06-17T06:01:53.840Z,1012.19
2018-06-17T06:02:53.852Z,1012.17
2018-06-17T06:03:53.846Z,1012.17
2018-06-17T06:04:53.860Z,1012.19
2018-06-17T06:05:53.853Z,1012.19
2018-06-17T06:06:53.860Z,1012.19
2018-06-17T06:07:53.855Z,1012.13
2018-06-17T06:08:53.875Z,1012.15
2018-06-17T06:09:53.859Z,1012.10
2018-06-17T06:10:53.864Z,1012.11
2018-06-17T06:11:53.866Z,1012.14
2018-06-17T06:12:53.884Z,1012.13
2018-06-17T06:13:53.873Z,1012.13
2018-06-17T06:14:53.872Z,1012.14
2018-06-17T06:15:53.878Z,1012.21
2018-06-17T06:16:53.924Z,1012.19
2018-06-17T06:17:53.884Z,1012.15
2018-06-17T06:18:53.884Z,1012.15
2018-06-17T06:19:53.897Z,1012.21
2018-06-17T06:20:53.898Z,1012.20
2018-06-17T06:21:53.920Z,1012.20
2018-06-17T06:22:53.921Z,1012.24
2018-06-17T06:23:53.912Z,1012.23
2018-06-17T06:24:53.899Z,1012.22
2018-06-17T06:25:53.912Z,1012.25
2018-06-17T06:26:53.905Z,1012.27
2018-06-17T06:27:53.927Z,1012.26
2018-06-17T06:28:53.946Z,1012.27
2018-06-17T06:29:53.913Z,1012.28
2018-06-17T06:30:53.929Z,1012.26
2018-06-17T06:31:53.920Z,1012.22
2018-06-17T06:32:53.921Z,1012.22
2018-06-17T06:33:53.935Z,1012.32
2018-06-17T06:34:53.947Z,1012.31
2018-06-17T06:35:53.949Z,1012.30
2018-06-17T06:36:53.932Z,1012.27
2018-06-17T06:37:53.947Z,1012.32
2018-06-17T06:38:53.935Z,1012.26
2018-06-17T06:39:53.949Z,1012.30
2018-06-17T06:40:53.943Z,1012.26
2018-06-17T06:41:53.949Z,1012.27
2018-06-17T06:42:54.012Z,1012.26
2018-06-17T06:43:53.948Z,1012.26
2018-06-17T06:44:53.950Z,1012.28
2018-06-17T06:45:53.966Z,1012.26
2018-06-17T06:46:53.967Z,1012.26
2018-06-17T06:47:53.955Z,1012.30
2018-06-17T06:48:53.961Z,1012.27
2018-06-17T06:49:54.002Z,1012.27
2018-06-17T06:50:54.070Z,1012.28
2018-06-17T06:51:53.968Z,1012.24
2018-06-17T06:52:53.983Z,1012.24
2018-06-17T06:53:53.976Z,1012.27
2018-06-17T06:54:53.980Z,1012.25
2018-06-17T06:55:53.993Z,1012.26
2018-06-17T06:56:53.983Z,1012.27
2018-06-17T06:57:53.997Z,1012.29
2018-06-17T06:58:53.987Z,1012.27
2018-06-17T06:59:53.992Z,1012.28
2018-06-17T07:00:54.005Z,1012.29
2018-06-17T07:01:53.995Z,1012.30
2018-06-17T07:02:54.011Z,1012.31
2018-06-17T07:03:54.001Z,1012.34
2018-06-17T07:04:54.002Z,1012.37
2018-06-17T07:05:54.019Z,1012.37
2018-06-17T07:06:54.025Z,1012.34
2018-06-17T07:07:54.021Z,1012.39
2018-06-17T07:08:54.013Z,1012.37
2018-06-17T07:09:54.054Z,1012.36
2018-06-17T07:10:54.023Z,1012.38
2018-06-17T07:11:54.027Z,1012.41
2018-06-17T07:12:54.029Z,1012.40
2018-06-17T07:13:54.026Z,1012.45
2018-06-17T07:14:54.041Z,1012.43
2018-06-17T07:15:54.033Z,1012.50
2018-06-17T07:16:54.035Z,1012.52
2018-06-17T07:17:54.038Z,1012.51
2018-06-17T07:18:54.044Z,1012.53
2018-06-17T07:19:54.040Z,1012.52
2018-06-17T07:20:54.042Z,1012.55
2018-06-17T07:21:54.046Z,1012.56
2018-06-17T07:22:54.047Z,1012.57
2018-06-17T07:23:54.063Z,1012.53
2018-06-17T07:24:54.061Z,1012.58
2018-06-17T07:25:54.060Z,1012.58
2018-06-17T07:26:54.060Z,1012.58
2018-06-17T07:27:54.063Z,1012.61
2018-06-17T07:28:54.065Z,1012.59
2018-06-17T07:29:54.077Z,1012.63
2018-06-17T07:30:54.087Z,1012.62
2018-06-17T07:31:54.137Z,1012.66
2018-06-17T07:32:54.085Z,1012.66
2018-06-17T07:33:54.092Z,1012.66
2018-06-17T07:34:54.099Z,1012.64
2018-06-17T07:35:54.083Z,1012.68
2018-06-17T07:36:54.099Z,1012.70
2018-06-17T07:37:54.126Z,1012.75
2018-06-17T07:38:54.132Z,1012.77
2018-06-17T07:39:54.111Z,1012.83
2018-06-17T07:40:54.111Z,1012.83
2018-06-17T07:41:54.114Z,1012.85
2018-06-17T07:42:54.099Z,1012.87
2018-06-17T07:43:54.176Z,1012.91
2018-06-17T07:44:54.117Z,1012.90
2018-06-17T07:45:54.126Z,1012.92
2018-06-17T07:46:54.145Z,1012.90
2018-06-17T07:47:54.128Z,1012.87
2018-06-17T07:48:54.130Z,1012.87
2018-06-17T07:49:54.122Z,1012.86
2018-06-17T07:50:54.145Z,1012.84
2018-06-17T07:51:54.174Z,1012.84
2018-06-17T07:52:54.137Z,1012.85
2018-06-17T07:53:54.153Z,1012.89
2018-06-17T07:54:54.172Z,1012.82
2018-06-17T07:55:54.163Z,1012.83
2018-06-17T07:56:54.160Z,1012.87
2018-06-17T07:57:54.181Z,1012.83
2018-06-17T07:58:54.199Z,1012.83
2018-06-17T07:59:54.163Z,1012.84
2018-06-17T08:00:54.161Z,1012.84
2018-06-17T08:01:54.167Z,1012.80
2018-06-17T08:02:54.180Z,1012.85
2018-06-17T08:03:54.178Z,1012.88
2018-06-17T08:04:54.187Z,1012.88
2018-06-17T08:05:54.215Z,1012.85
2018-06-17T08:06:54.205Z,1012.90
2018-06-17T08:07:54.221Z,1012.85
2018-06-17T08:08:54.210Z,1012.83
2018-06-17T08:09:54.189Z,1012.79
2018-06-17T08:10:54.324Z,1012.85
2018-06-17T08:11:54.229Z,1012.85
2018-06-17T08:12:54.194Z,1012.85
2018-06-17T08:13:54.198Z,1012.81
2018-06-17T08:14:54.331Z,1012.83
2018-06-17T08:15:54.232Z,1012.82
2018-06-17T08:16:54.234Z,1012.86
2018-06-17T08:17:54.227Z,1012.90
2018-06-17T08:18:54.230Z,1012.84
2018-06-17T08:19:54.220Z,1012.85
2018-06-17T08:20:54.215Z,1012.81
2018-06-17T08:21:54.229Z,1012.83
2018-06-17T08:22:54.246Z,1012.87
2018-06-17T08:23:54.235Z,1012.83
2018-06-17T08:24:54.243Z,1012.79
2018-06-17T08:25:54.250Z,1012.84
2018-06-17T08:26:54.229Z,1012.89
2018-06-17T08:27:54.268Z,1012.83
2018-06-17T08:28:54.262Z,1012.82
2018-06-17T08:29:54.285Z,1012.82
2018-06-17T08:30:54.253Z,1012.83
2018-06-17T08:31:54.331Z,1012.86
2018-06-17T08:32:54.299Z,1012.90
2018-06-17T08:33:54.261Z,1012.80
2018-06-17T08:34:54.296Z,1012.83
2018-06-17T08:35:54.300Z,1012.83
2018-06-17T08:36:54.284Z,1012.84
2018-06-17T08:37:54.273Z,1012.87
2018-06-17T08:38:54.277Z,1012.87
2018-06-17T08:39:54.286Z,1012.81
2018-06-17T08:40:54.386Z,1012.86
2018-06-17T08:41:54.300Z,1012.88
2018-06-17T08:42:54.296Z,1012.81
2018-06-17T08:43:54.332Z,1012.80
2018-06-17T08:44:54.322Z,1012.81
2018-06-17T08:45:54.296Z,1012.76
2018-06-17T08:46:54.327Z,1012.74
2018-06-17T08:47:54.334Z,1012.74
2018-06-17T08:48:54.345Z,1012.74
2018-06-17T08:49:54.290Z,1012.75
2018-06-17T08:50:54.326Z,1012.75
2018-06-17T08:51:54.313Z,1012.77
2018-06-17T08:52:54.327Z,1012.74
2018-06-17T08:53:54.314Z,1012.74
2018-06-17T08:54:54.330Z,1012.75
2018-06-17T08:55:54.307Z,1012.78
2018-06-17T08:56:54.348Z,1012.75
2018-06-17T08:57:54.330Z,1012.82
2018-06-17T08:58:54.376Z,1012.73
2018-06-17T08:59:54.353Z,1012.75
2018-06-17T09:00:54.333Z,1012.74
2018-06-17T09:01:54.373Z,1012.75
2018-06-17T09:02:54.338Z,1012.72
2018-06-17T09:03:54.392Z,1012.73
2018-06-17T09:04:54.348Z,1012.73
2018-06-17T09:05:54.361Z,1012.76
2018-06-17T09:06:54.368Z,1012.75
2018-06-17T09:07:54.355Z,1012.72
2018-06-17T09:08:54.346Z,1012.78
2018-06-17T09:09:54.386Z,1012.76
2018-06-17T09:10:54.378Z,1012.80
2018-06-17T09:11:54.374Z,1012.79
2018-06-17T09:12:54.353Z,1012.79
2018-06-17T09:13:54.445Z,1012.79
2018-06-17T09:14:54.400Z,1012.78
2018-06-17T09:15:54.405Z,1012.75
2018-06-17T09:16:54.395Z,1012.78
2018-06-17T09:17:54.373Z,1012.79
2018-06-17T09:18:54.419Z,1012.78
2018-06-17T09:19:54.408Z,1012.79
2018-06-17T09:20:54.429Z,1012.82
2018-06-17T09:21:54.421Z,1012.79
2018-06-17T09:22:54.412Z,1012.85
2018-06-17T09:23:54.422Z,1012.83
2018-06-17T09:24:54.404Z,1012.86
2018-06-17T09:25:54.415Z,1012.83
2018-06-17T09:26:54.413Z,1012.84
2018-06-17T09:27:54.453Z,1012.86
2018-06-17T09:28:54.413Z,1012.82
2018-06-17T09:29:54.434Z,1012.84
2018-06-17T09:30:54.476Z,1012.87
2018-06-17T09:31:54.509Z,1012.82
2018-06-17T09:32:54.437Z,1012.84
2018-06-17T09:33:54.430Z,1012.82
2018-06-17T09:34:54.436Z,1012.84
2018-06-17T09:35:54.447Z,1012.88
2018-06-17T09:36:54.417Z,1012.86
2018-06-17T09:37:54.467Z,1012.90
2018-06-17T09:38:54.431Z,1012.85
2018-06-17T09:39:54.448Z,1012.85
2018-06-17T09:40:54.449Z,1012.88
2018-06-17T09:41:54.452Z,1012.84
2018-06-17T09:42:54.447Z,1012.87
2018-06-17T09:43:54.466Z,1012.88
2018-06-17T09:44:54.485Z,1012.84
2018-06-17T09:45:54.458Z,1012.88
2018-06-17T09:46:54.538Z,1012.87
2018-06-17T09:47:54.476Z,1012.86
2018-06-17T09:48:54.468Z,1012.86
2018-06-17T09:49:54.494Z,1012.87
2018-06-17T09:50:54.500Z,1012.84
2018-06-17T09:51:54.461Z,1012.87
2018-06-17T09:52:54.454Z,1012.86
2018-06-17T09:53:54.492Z,1012.90
2018-06-17T09:54:54.501Z,1012.91
2018-06-17T09:55:54.506Z,1012.94
2018-06-17T09:56:54.478Z,1012.93
2018-06-17T09:57:54.501Z,1012.93
2018-06-17T09:58:54.508Z,1012.95
2018-06-17T09:59:54.517Z,1012.92
2018-06-17T10:00:54.498Z,1012.96
2018-06-17T10:01:54.500Z,1012.91
2018-06-17T10:02:54.528Z,1012.92
2018-06-17T10:03:54.504Z,1012.88
2018-06-17T10:04:54.511Z,1012.88
2018-06-17T10:05:54.519Z,1012.89
2018-06-17T10:06:54.510Z,1012.93
2018-06-17T10:07:54.583Z,1012.90
2018-06-17T10:08:54.659Z,1012.92
2018-06-17T10:09:54.517Z,1012.90
2018-06-17T10:10:54.561Z,1012.87
2018-06-17T10:11:54.536Z,1012.92
2018-06-17T10:12:54.532Z,1012.88
2018-06-17T10:13:54.529Z,1012.89
2018-06-17T10:14:54.547Z,1012.86
2018-06-17T10:15:54.556Z,1012.90
2018-06-17T10:16:54.547Z,1012.88
2018-06-17T10:17:54.577Z,1012.89
2018-06-17T10:18:54.547Z,1012.89
2018-06-17T10:19:54.570Z,1012.94
2018-06-17T10:20:54.572Z,1012.91
2018-06-17T10:21:54.528Z,1012.90
2018-06-17T10:22:54.534Z,1012.90
2018-06-17T10:23:54.751Z,1012.89
2018-06-17T10:24:54.542Z,1012.94
2018-06-17T10:25:54.542Z,1012.91
2018-06-17T10:26:54.543Z,1012.95
2018-06-17T10:27:54.558Z,1012.99
2018-06-17T10:28:54.571Z,1012.92
2018-06-17T10:29:54.553Z,1012.97
2018-06-17T10:30:54.585Z,1012.96
2018-06-17T10:31:54.586Z,1012.96
2018-06-17T10:32:54.574Z,1012.99
2018-06-17T10:33:54.578Z,1012.99
2018-06-17T10:34:54.565Z,1013.03
2018-06-17T10:35:54.584Z,1012.98
2018-06-17T10:36:54.574Z,1012.98
2018-06-17T10:37:54.587Z,1012.99
2018-06-17T10:38:54.579Z,1012.95
2018-06-17T10:39:54.585Z,1012.95
2018-06-17T10:40:54.787Z,1012.95
2018-06-17T10:41:54.615Z,1012.97
2018-06-17T10:42:54.795Z,1012.99
2018-06-17T10:43:54.603Z,1012.95
2018-06-17T10:44:54.601Z,1012.96
2018-06-17T10:45:54.803Z,1012.99
2018-06-17T10:46:54.601Z,1012.97
2018-06-17T10:47:54.605Z,1012.98
2018-06-17T10:48:54.651Z,1013.01
2018-06-17T10:49:54.816Z,1013.05
2018-06-17T10:50:54.613Z,1013.06
2018-06-17T10:51:54.617Z,1013.06
2018-06-17T10:52:54.835Z,1013.04
2018-06-17T10:53:54.635Z,1013.04
2018-06-17T10:54:54.826Z,1013.05
2018-06-17T10:55:54.744Z,1013.02
2018-06-17T10:56:54.632Z,1013.04
2018-06-17T10:57:54.634Z,1013.08
2018-06-17T10:58:54.653Z,1013.14
2018-06-17T10:59:54.661Z,1013.12
2018-06-17T11:00:54.654Z,1013.15
2018-06-17T11:01:54.702Z,1013.17
2018-06-17T11:02:54.651Z,1013.10
2018-06-17T11:03:54.669Z,1013.09
2018-06-17T11:04:54.869Z,1013.13
2018-06-17T11:05:54.659Z,1013.09
2018-06-17T11:06:54.673Z,1013.11
2018-06-17T11:07:54.662Z,1013.11
2018-06-17T11:08:54.689Z,1013.14
2018-06-17T11:09:54.697Z,1013.18
2018-06-17T11:10:54.688Z,1013.20
2018-06-17T11:11:54.892Z,1013.18
2018-06-17T11:12:54.731Z,1013.12
2018-06-17T11:13:54.728Z,1013.12
2018-06-17T11:14:54.711Z,1013.15
2018-06-17T11:15:54.729Z,1013.13
2018-06-17T11:16:54.735Z,1013.11
2018-06-17T11:17:54.702Z,1013.10
2018-06-17T11:18:54.722Z,1013.12
2018-06-17T11:19:54.706Z,1013.15
2018-06-17T11:20:54.723Z,1013.11
2018-06-17T11:21:54.700Z,1013.15
2018-06-17T11:22:54.711Z,1013.17
2018-06-17T11:23:54.909Z,1013.23
2018-06-17T11:24:54.727Z,1013.18
2018-06-17T11:25:54.713Z,1013.16
2018-06-17T11:26:54.728Z,1013.18
2018-06-17T11:27:54.953Z,1013.18
2018-06-17T11:28:54.734Z,1013.21
2018-06-17T11:29:54.723Z,1013.24
2018-06-17T11:30:54.735Z,1013.20
2018-06-17T11:31:54.727Z,1013.17
2018-06-17T11:32:54.729Z,1013.21
2018-06-17T11:33:54.743Z,1013.20
2018-06-17T11:34:54.736Z,1013.16
2018-06-17T11:35:54.749Z,1013.18
2018-06-17T11:36:54.741Z,1013.20
2018-06-17T11:37:54.742Z,1013.15
2018-06-17T11:38:54.852Z,1013.18
2018-06-17T11:39:54.766Z,1013.17
2018-06-17T11:40:54.974Z,1013.18
2018-06-17T11:41:54.959Z,1013.22
2018-06-17T11:42:54.756Z,1013.19
2018-06-17T11:43:54.985Z,1013.23
2018-06-17T11:44:54.775Z,1013.21
2018-06-17T11:45:54.776Z,1013.25
2018-06-17T11:46:54.765Z,1013.23
2018-06-17T11:47:54.782Z,1013.20
2018-06-17T11:48:54.773Z,1013.24
2018-06-17T11:49:54.793Z,1013.19
2018-06-17T11:50:54.848Z,1013.22
2018-06-17T11:51:54.792Z,1013.23
2018-06-17T11:52:55.000Z,1013.21
2018-06-17T11:53:54.785Z,1013.22
2018-06-17T11:54:54.815Z,1013.22
2018-06-17T11:55:54.794Z,1013.27
2018-06-17T11:56:54.793Z,1013.23
2018-06-17T11:57:55.024Z,1013.22
2018-06-17T11:58:54.810Z,1013.23
2018-06-17T11:59:55.010Z,1013.28
2018-06-17T12:00:54.805Z,1013.35
2018-06-17T12:01:54.844Z,1013.32
2018-06-17T12:02:54.819Z,1013.33
2018-06-17T12:03:54.824Z,1013.36
2018-06-17T12:04:55.033Z,1013.34
2018-06-17T12:05:55.022Z,1013.37